sensor_id;sensor_type;location;lat;lon;timestamp;P1;durP1;ratioP1;P2;durP2;ratioP2
20855;SDS011;63058;49.424;8.420;2023-02-05T00:02:00;4.07;;;2.30;;
20855;SDS011;63058;49.424;8.420;2023-02-05T00:04:25;4.23;;;2.27;;
20855;SDS011;63058;49.424;8.420;2023-02-05T00:06:53;3.47;;;2.17;;
20855;SDS011;63058;49.424;8.420;2023-02-05T00:09:19;5.87;;;2.50;;
20855;SDS011;63058;49.424;8.420;2023-02-05T00:11:44;4.20;;;2.67;;
20855;SDS011;63058;49.424;8.420;2023-02-05T00:14:10;5.93;;;2.50;;
20855;SDS011;63058;49.424;8.420;2023-02-05T00:16:35;5.83;;;2.40;;
20855;SDS011;63058;49.424;8.420;2023-02-05T00:19:01;6.17;;;3.27;;
20855;SDS011;63058;49.424;8.420;2023-02-05T00:21:27;8.50;;;3.40;;
20855;SDS011;63058;49.424;8.420;2023-02-05T00:23:53;5.63;;;2.60;;
20855;SDS011;63058;49.424;8.420;2023-02-05T00:26:18;6.57;;;3.00;;
20855;SDS011;63058;49.424;8.420;2023-02-05T00:28:44;5.20;;;2.80;;
20855;SDS011;63058;49.424;8.420;2023-02-05T00:31:11;6.40;;;2.77;;
20855;SDS011;63058;49.424;8.420;2023-02-05T00:33:39;5.03;;;2.77;;
20855;SDS011;63058;49.424;8.420;2023-02-05T00:36:04;5.10;;;2.73;;
20855;SDS011;63058;49.424;8.420;2023-02-05T00:38:31;4.63;;;2.73;;
20855;SDS011;63058;49.424;8.420;2023-02-05T00:40:56;7.07;;;3.30;;
20855;SDS011;63058;49.424;8.420;2023-02-05T00:43:22;5.93;;;3.13;;
20855;SDS011;63058;49.424;8.420;2023-02-05T00:45:48;4.47;;;2.90;;
20855;SDS011;63058;49.424;8.420;2023-02-05T00:48:13;6.53;;;3.60;;
20855;SDS011;63058;49.424;8.420;2023-02-05T00:50:39;5.83;;;3.23;;
20855;SDS011;63058;49.424;8.420;2023-02-05T00:53:05;7.90;;;3.60;;
20855;SDS011;63058;49.424;8.420;2023-02-05T00:55:31;10.00;;;3.97;;
20855;SDS011;63058;49.424;8.420;2023-02-05T00:57:57;7.60;;;3.90;;
20855;SDS011;63058;49.424;8.420;2023-02-05T01:00:22;6.90;;;3.63;;
20855;SDS011;63058;49.424;8.420;2023-02-05T01:02:48;7.50;;;3.90;;
20855;SDS011;63058;49.424;8.420;2023-02-05T01:05:14;6.10;;;3.40;;
20855;SDS011;63058;49.424;8.420;2023-02-05T01:07:40;9.33;;;3.80;;
20855;SDS011;63058;49.424;8.420;2023-02-05T01:10:05;7.87;;;3.60;;
20855;SDS011;63058;49.424;8.420;2023-02-05T01:12:31;7.70;;;3.70;;
20855;SDS011;63058;49.424;8.420;2023-02-05T01:15:01;6.17;;;3.90;;
20855;SDS011;63058;49.424;8.420;2023-02-05T01:17:28;7.03;;;3.30;;
20855;SDS011;63058;49.424;8.420;2023-02-05T01:19:54;7.63;;;3.80;;
20855;SDS011;63058;49.424;8.420;2023-02-05T01:22:20;5.53;;;2.80;;
20855;SDS011;63058;49.424;8.420;2023-02-05T01:24:45;6.30;;;3.07;;
20855;SDS011;63058;49.424;8.420;2023-02-05T01:27:11;6.87;;;3.23;;
20855;SDS011;63058;49.424;8.420;2023-02-05T01:29:36;5.73;;;3.10;;
20855;SDS011;63058;49.424;8.420;2023-02-05T01:32:02;7.13;;;3.30;;
20855;SDS011;63058;49.424;8.420;2023-02-05T01:34:28;4.80;;;2.57;;
20855;SDS011;63058;49.424;8.420;2023-02-05T01:36:53;4.93;;;3.00;;
20855;SDS011;63058;49.424;8.420;2023-02-05T01:39:19;5.80;;;3.37;;
20855;SDS011;63058;49.424;8.420;2023-02-05T01:41:44;6.50;;;3.17;;
20855;SDS011;63058;49.424;8.420;2023-02-05T01:44:17;4.93;;;3.00;;
20855;SDS011;63058;49.424;8.420;2023-02-05T01:46:49;7.37;;;3.37;;
20855;SDS011;63058;49.424;8.420;2023-02-05T01:49:18;7.37;;;3.60;;
20855;SDS011;63058;49.424;8.420;2023-02-05T01:51:54;6.13;;;3.20;;
20855;SDS011;63058;49.424;8.420;2023-02-05T01:54:24;6.47;;;3.20;;
20855;SDS011;63058;49.424;8.420;2023-02-05T01:56:53;4.20;;;2.97;;
20855;SDS011;63058;49.424;8.420;2023-02-05T01:59:24;5.73;;;3.30;;
20855;SDS011;63058;49.424;8.420;2023-02-05T02:01:53;6.77;;;3.20;;
20855;SDS011;63058;49.424;8.420;2023-02-05T02:04:22;6.07;;;2.90;;
20855;SDS011;63058;49.424;8.420;2023-02-05T02:06:53;6.90;;;2.97;;
20855;SDS011;63058;49.424;8.420;2023-02-05T02:09:19;6.37;;;3.03;;
20855;SDS011;63058;49.424;8.420;2023-02-05T02:11:44;4.97;;;2.77;;
20855;SDS011;63058;49.424;8.420;2023-02-05T02:14:10;4.77;;;2.87;;
20855;SDS011;63058;49.424;8.420;2023-02-05T02:16:37;6.77;;;2.93;;
20855;SDS011;63058;49.424;8.420;2023-02-05T02:19:06;4.10;;;2.77;;
20855;SDS011;63058;49.424;8.420;2023-02-05T02:27:51;4.00;;;2.90;;
20855;SDS011;63058;49.424;8.420;2023-02-05T02:30:31;7.87;;;3.17;;
20855;SDS011;63058;49.424;8.420;2023-02-05T02:33:12;5.20;;;2.70;;
20855;SDS011;63058;49.424;8.420;2023-02-05T02:38:32;4.37;;;2.67;;
20855;SDS011;63058;49.424;8.420;2023-02-05T02:47:11;5.07;;;2.90;;
20855;SDS011;63058;49.424;8.420;2023-02-05T02:49:43;4.57;;;2.57;;
20855;SDS011;63058;49.424;8.420;2023-02-05T02:52:17;3.87;;;2.30;;
20855;SDS011;63058;49.424;8.420;2023-02-05T02:54:47;3.90;;;2.40;;
20855;SDS011;63058;49.424;8.420;2023-02-05T02:57:30;6.07;;;2.57;;
20855;SDS011;63058;49.424;8.420;2023-02-05T02:59:59;4.40;;;2.70;;
20855;SDS011;63058;49.424;8.420;2023-02-05T03:02:27;3.90;;;2.70;;
20855;SDS011;63058;49.424;8.420;2023-02-05T03:04:57;3.33;;;2.30;;
20855;SDS011;63058;49.424;8.420;2023-02-05T03:07:33;5.23;;;2.50;;
20855;SDS011;63058;49.424;8.420;2023-02-05T03:12:43;4.03;;;2.33;;
20855;SDS011;63058;49.424;8.420;2023-02-05T03:15:09;3.90;;;2.33;;
20855;SDS011;63058;49.424;8.420;2023-02-05T03:17:35;4.37;;;2.37;;
20855;SDS011;63058;49.424;8.420;2023-02-05T03:20:04;3.90;;;1.83;;
20855;SDS011;63058;49.424;8.420;2023-02-05T03:22:42;2.87;;;2.07;;
20855;SDS011;63058;49.424;8.420;2023-02-05T03:25:08;3.60;;;2.17;;
20855;SDS011;63058;49.424;8.420;2023-02-05T03:27:34;3.20;;;1.90;;
20855;SDS011;63058;49.424;8.420;2023-02-05T03:30:01;3.23;;;2.00;;
20855;SDS011;63058;49.424;8.420;2023-02-05T03:32:38;3.13;;;1.90;;
20855;SDS011;63058;49.424;8.420;2023-02-05T03:40:54;3.73;;;2.30;;
20855;SDS011;63058;49.424;8.420;2023-02-05T03:46:30;4.97;;;2.40;;
20855;SDS011;63058;49.424;8.420;2023-02-05T03:49:16;3.63;;;1.90;;
20855;SDS011;63058;49.424;8.420;2023-02-05T03:51:54;4.50;;;2.07;;
20855;SDS011;63058;49.424;8.420;2023-02-05T03:54:45;3.13;;;1.80;;
20855;SDS011;63058;49.424;8.420;2023-02-05T03:59:46;3.07;;;2.17;;
20855;SDS011;63058;49.424;8.420;2023-02-05T04:02:13;4.47;;;2.50;;
20855;SDS011;63058;49.424;8.420;2023-02-05T04:04:40;2.57;;;1.83;;
20855;SDS011;63058;49.424;8.420;2023-02-05T04:07:05;3.30;;;2.13;;
20855;SDS011;63058;49.424;8.420;2023-02-05T04:09:31;4.73;;;2.30;;
20855;SDS011;63058;49.424;8.420;2023-02-05T04:11:56;4.63;;;2.27;;
20855;SDS011;63058;49.424;8.420;2023-02-05T04:14:22;3.77;;;2.10;;
20855;SDS011;63058;49.424;8.420;2023-02-05T04:16:48;3.90;;;2.33;;
20855;SDS011;63058;49.424;8.420;2023-02-05T04:19:13;5.37;;;2.67;;
20855;SDS011;63058;49.424;8.420;2023-02-05T04:21:39;3.73;;;2.20;;
20855;SDS011;63058;49.424;8.420;2023-02-05T04:24:04;3.10;;;2.17;;
20855;SDS011;63058;49.424;8.420;2023-02-05T04:26:30;4.27;;;2.20;;
20855;SDS011;63058;49.424;8.420;2023-02-05T04:28:56;2.47;;;1.93;;
20855;SDS011;63058;49.424;8.420;2023-02-05T04:31:21;3.47;;;2.07;;
20855;SDS011;63058;49.424;8.420;2023-02-05T04:33:48;5.50;;;2.47;;
20855;SDS011;63058;49.424;8.420;2023-02-05T04:36:14;3.50;;;2.40;;
20855;SDS011;63058;49.424;8.420;2023-02-05T04:38:39;4.63;;;2.40;;
20855;SDS011;63058;49.424;8.420;2023-02-05T04:41:05;4.50;;;2.00;;
20855;SDS011;63058;49.424;8.420;2023-02-05T04:43:32;2.77;;;2.00;;
20855;SDS011;63058;49.424;8.420;2023-02-05T04:45:57;3.87;;;2.20;;
20855;SDS011;63058;49.424;8.420;2023-02-05T04:48:30;4.17;;;2.30;;
20855;SDS011;63058;49.424;8.420;2023-02-05T04:50:56;2.87;;;2.10;;
20855;SDS011;63058;49.424;8.420;2023-02-05T04:53:21;3.60;;;2.37;;
20855;SDS011;63058;49.424;8.420;2023-02-05T04:55:47;3.23;;;2.37;;
20855;SDS011;63058;49.424;8.420;2023-02-05T04:58:13;4.20;;;2.50;;
20855;SDS011;63058;49.424;8.420;2023-02-05T05:00:38;4.73;;;2.87;;
20855;SDS011;63058;49.424;8.420;2023-02-05T05:03:04;4.60;;;2.37;;
20855;SDS011;63058;49.424;8.420;2023-02-05T05:05:30;5.03;;;2.63;;
20855;SDS011;63058;49.424;8.420;2023-02-05T05:07:59;3.20;;;2.50;;
20855;SDS011;63058;49.424;8.420;2023-02-05T05:10:29;4.20;;;2.53;;
20855;SDS011;63058;49.424;8.420;2023-02-05T05:12:55;4.40;;;2.53;;
20855;SDS011;63058;49.424;8.420;2023-02-05T05:15:20;4.47;;;2.70;;
20855;SDS011;63058;49.424;8.420;2023-02-05T05:17:46;5.27;;;3.00;;
20855;SDS011;63058;49.424;8.420;2023-02-05T05:20:11;3.47;;;2.63;;
20855;SDS011;63058;49.424;8.420;2023-02-05T05:22:37;3.93;;;2.70;;
20855;SDS011;63058;49.424;8.420;2023-02-05T05:25:02;4.23;;;2.30;;
20855;SDS011;63058;49.424;8.420;2023-02-05T05:27:28;3.60;;;2.57;;
20855;SDS011;63058;49.424;8.420;2023-02-05T05:29:53;3.40;;;2.40;;
20855;SDS011;63058;49.424;8.420;2023-02-05T05:32:19;4.23;;;2.43;;
20855;SDS011;63058;49.424;8.420;2023-02-05T05:34:45;4.30;;;2.63;;
20855;SDS011;63058;49.424;8.420;2023-02-05T05:37:10;3.83;;;2.40;;
20855;SDS011;63058;49.424;8.420;2023-02-05T05:39:38;3.40;;;2.23;;
20855;SDS011;63058;49.424;8.420;2023-02-05T05:42:22;4.00;;;2.70;;
20855;SDS011;63058;49.424;8.420;2023-02-05T05:45:07;4.00;;;2.40;;
20855;SDS011;63058;49.424;8.420;2023-02-05T05:47:32;4.10;;;2.90;;
20855;SDS011;63058;49.424;8.420;2023-02-05T05:49:58;6.60;;;2.90;;
20855;SDS011;63058;49.424;8.420;2023-02-05T05:52:24;4.63;;;2.83;;
20855;SDS011;63058;49.424;8.420;2023-02-05T05:54:49;4.80;;;3.03;;
20855;SDS011;63058;49.424;8.420;2023-02-05T05:57:15;3.47;;;2.47;;
20855;SDS011;63058;49.424;8.420;2023-02-05T05:59:43;5.47;;;3.20;;
20855;SDS011;63058;49.424;8.420;2023-02-05T06:02:08;4.57;;;2.60;;
20855;SDS011;63058;49.424;8.420;2023-02-05T06:04:34;6.07;;;3.07;;
20855;SDS011;63058;49.424;8.420;2023-02-05T06:07:02;3.50;;;2.77;;
20855;SDS011;63058;49.424;8.420;2023-02-05T06:09:27;5.83;;;2.83;;
20855;SDS011;63058;49.424;8.420;2023-02-05T06:11:53;4.77;;;3.20;;
20855;SDS011;63058;49.424;8.420;2023-02-05T06:14:18;4.50;;;2.77;;
20855;SDS011;63058;49.424;8.420;2023-02-05T06:16:44;4.73;;;3.07;;
20855;SDS011;63058;49.424;8.420;2023-02-05T06:19:10;3.37;;;2.60;;
20855;SDS011;63058;49.424;8.420;2023-02-05T06:21:35;4.30;;;2.93;;
20855;SDS011;63058;49.424;8.420;2023-02-05T06:24:01;5.20;;;3.00;;
20855;SDS011;63058;49.424;8.420;2023-02-05T06:26:26;4.50;;;2.83;;
20855;SDS011;63058;49.424;8.420;2023-02-05T06:28:52;4.33;;;2.77;;
20855;SDS011;63058;49.424;8.420;2023-02-05T06:31:21;6.50;;;3.47;;
20855;SDS011;63058;49.424;8.420;2023-02-05T06:33:48;5.47;;;3.50;;
20855;SDS011;63058;49.424;8.420;2023-02-05T06:36:13;5.60;;;3.33;;
20855;SDS011;63058;49.424;8.420;2023-02-05T06:38:39;5.47;;;3.60;;
20855;SDS011;63058;49.424;8.420;2023-02-05T06:41:04;5.17;;;3.27;;
20855;SDS011;63058;49.424;8.420;2023-02-05T06:43:30;6.07;;;3.40;;
20855;SDS011;63058;49.424;8.420;2023-02-05T06:45:55;5.40;;;3.37;;
20855;SDS011;63058;49.424;8.420;2023-02-05T06:48:27;6.50;;;3.87;;
20855;SDS011;63058;49.424;8.420;2023-02-05T06:50:54;5.60;;;3.37;;
20855;SDS011;63058;49.424;8.420;2023-02-05T06:53:20;7.33;;;3.73;;
20855;SDS011;63058;49.424;8.420;2023-02-05T06:55:46;7.80;;;4.10;;
20855;SDS011;63058;49.424;8.420;2023-02-05T06:58:11;6.73;;;3.43;;
20855;SDS011;63058;49.424;8.420;2023-02-05T07:00:37;5.97;;;3.37;;
20855;SDS011;63058;49.424;8.420;2023-02-05T07:03:03;5.57;;;3.67;;
20855;SDS011;63058;49.424;8.420;2023-02-05T07:05:32;6.00;;;3.90;;
20855;SDS011;63058;49.424;8.420;2023-02-05T07:07:58;7.37;;;3.87;;
20855;SDS011;63058;49.424;8.420;2023-02-05T07:10:24;6.23;;;3.67;;
20855;SDS011;63058;49.424;8.420;2023-02-05T07:12:50;7.03;;;3.57;;
20855;SDS011;63058;49.424;8.420;2023-02-05T07:15:16;7.60;;;4.20;;
20855;SDS011;63058;49.424;8.420;2023-02-05T07:17:41;6.60;;;4.10;;
20855;SDS011;63058;49.424;8.420;2023-02-05T07:20:07;6.87;;;3.93;;
20855;SDS011;63058;49.424;8.420;2023-02-05T07:22:33;6.33;;;3.83;;
20855;SDS011;63058;49.424;8.420;2023-02-05T07:24:58;5.80;;;4.10;;
20855;SDS011;63058;49.424;8.420;2023-02-05T07:27:26;7.50;;;4.40;;
20855;SDS011;63058;49.424;8.420;2023-02-05T07:29:52;6.83;;;4.23;;
20855;SDS011;63058;49.424;8.420;2023-02-05T07:32:18;7.30;;;4.43;;
20855;SDS011;63058;49.424;8.420;2023-02-05T07:34:43;7.83;;;4.27;;
20855;SDS011;63058;49.424;8.420;2023-02-05T07:37:10;6.53;;;4.03;;
20855;SDS011;63058;49.424;8.420;2023-02-05T07:39:37;7.03;;;4.00;;
20855;SDS011;63058;49.424;8.420;2023-02-05T07:42:02;6.30;;;4.03;;
20855;SDS011;63058;49.424;8.420;2023-02-05T07:44:28;10.10;;;4.60;;
20855;SDS011;63058;49.424;8.420;2023-02-05T07:46:54;7.53;;;4.60;;
20855;SDS011;63058;49.424;8.420;2023-02-05T07:49:19;6.73;;;4.40;;
20855;SDS011;63058;49.424;8.420;2023-02-05T07:51:50;9.70;;;4.67;;
20855;SDS011;63058;49.424;8.420;2023-02-05T07:54:15;6.87;;;4.63;;
20855;SDS011;63058;49.424;8.420;2023-02-05T07:56:41;7.73;;;4.60;;
20855;SDS011;63058;49.424;8.420;2023-02-05T07:59:06;9.20;;;4.77;;
20855;SDS011;63058;49.424;8.420;2023-02-05T08:01:33;9.03;;;4.73;;
20855;SDS011;63058;49.424;8.420;2023-02-05T08:03:59;8.23;;;5.17;;
20855;SDS011;63058;49.424;8.420;2023-02-05T08:06:27;10.53;;;5.53;;
20855;SDS011;63058;49.424;8.420;2023-02-05T08:08:53;7.67;;;4.93;;
20855;SDS011;63058;49.424;8.420;2023-02-05T08:11:20;7.00;;;5.17;;
20855;SDS011;63058;49.424;8.420;2023-02-05T08:13:46;8.00;;;5.03;;
20855;SDS011;63058;49.424;8.420;2023-02-05T08:16:12;6.07;;;4.67;;
20855;SDS011;63058;49.424;8.420;2023-02-05T08:18:39;7.37;;;4.90;;
20855;SDS011;63058;49.424;8.420;2023-02-05T08:21:05;10.17;;;5.70;;
20855;SDS011;63058;49.424;8.420;2023-02-05T08:23:33;9.67;;;5.43;;
20855;SDS011;63058;49.424;8.420;2023-02-05T08:25:59;9.23;;;5.57;;
20855;SDS011;63058;49.424;8.420;2023-02-05T08:28:25;9.83;;;5.30;;
20855;SDS011;63058;49.424;8.420;2023-02-05T08:30:52;10.23;;;5.53;;
20855;SDS011;63058;49.424;8.420;2023-02-05T08:33:18;9.23;;;5.57;;
20855;SDS011;63058;49.424;8.420;2023-02-05T08:35:44;11.03;;;5.43;;
20855;SDS011;63058;49.424;8.420;2023-02-05T08:38:10;7.93;;;5.30;;
20855;SDS011;63058;49.424;8.420;2023-02-05T08:40:35;9.47;;;6.20;;
20855;SDS011;63058;49.424;8.420;2023-02-05T08:43:01;8.97;;;5.20;;
20855;SDS011;63058;49.424;8.420;2023-02-05T08:45:27;9.53;;;5.50;;
20855;SDS011;63058;49.424;8.420;2023-02-05T08:47:53;9.00;;;5.23;;
20855;SDS011;63058;49.424;8.420;2023-02-05T08:50:19;8.13;;;5.30;;
20855;SDS011;63058;49.424;8.420;2023-02-05T08:52:45;9.03;;;5.93;;
20855;SDS011;63058;49.424;8.420;2023-02-05T08:55:11;8.93;;;5.33;;
20855;SDS011;63058;49.424;8.420;2023-02-05T08:57:37;11.43;;;5.80;;
20855;SDS011;63058;49.424;8.420;2023-02-05T09:00:03;12.03;;;6.57;;
20855;SDS011;63058;49.424;8.420;2023-02-05T09:02:29;9.70;;;6.20;;
20855;SDS011;63058;49.424;8.420;2023-02-05T09:04:55;11.47;;;6.23;;
20855;SDS011;63058;49.424;8.420;2023-02-05T09:07:20;10.73;;;5.97;;
20855;SDS011;63058;49.424;8.420;2023-02-05T09:09:46;10.93;;;6.33;;
20855;SDS011;63058;49.424;8.420;2023-02-05T09:12:11;11.73;;;6.83;;
20855;SDS011;63058;49.424;8.420;2023-02-05T09:14:37;11.10;;;6.00;;
20855;SDS011;63058;49.424;8.420;2023-02-05T09:17:07;8.03;;;5.20;;
20855;SDS011;63058;49.424;8.420;2023-02-05T09:19:34;11.03;;;5.67;;
20855;SDS011;63058;49.424;8.420;2023-02-05T09:22:01;9.17;;;5.67;;
20855;SDS011;63058;49.424;8.420;2023-02-05T09:24:27;12.40;;;6.47;;
20855;SDS011;63058;49.424;8.420;2023-02-05T09:26:53;9.87;;;5.97;;
20855;SDS011;63058;49.424;8.420;2023-02-05T09:29:19;8.37;;;5.43;;
20855;SDS011;63058;49.424;8.420;2023-02-05T09:31:45;7.70;;;5.13;;
20855;SDS011;63058;49.424;8.420;2023-02-05T09:34:10;9.33;;;5.70;;
20855;SDS011;63058;49.424;8.420;2023-02-05T09:36:36;9.73;;;5.60;;
20855;SDS011;63058;49.424;8.420;2023-02-05T09:39:02;9.73;;;5.87;;
20855;SDS011;63058;49.424;8.420;2023-02-05T09:41:28;9.67;;;5.50;;
20855;SDS011;63058;49.424;8.420;2023-02-05T09:44:14;10.33;;;5.90;;
20855;SDS011;63058;49.424;8.420;2023-02-05T09:52:28;10.87;;;5.40;;
20855;SDS011;63058;49.424;8.420;2023-02-05T09:54:59;9.20;;;5.30;;
20855;SDS011;63058;49.424;8.420;2023-02-05T09:57:35;10.57;;;5.50;;
20855;SDS011;63058;49.424;8.420;2023-02-05T10:03:06;6.30;;;4.87;;
20855;SDS011;63058;49.424;8.420;2023-02-05T10:10:50;9.90;;;5.93;;
20855;SDS011;63058;49.424;8.420;2023-02-05T10:16:09;12.10;;;6.57;;
20855;SDS011;63058;49.424;8.420;2023-02-05T10:22:11;12.37;;;6.83;;
20855;SDS011;63058;49.424;8.420;2023-02-05T10:24:45;10.43;;;6.10;;
20855;SDS011;63058;49.424;8.420;2023-02-05T10:27:46;11.57;;;6.57;;
20855;SDS011;63058;49.424;8.420;2023-02-05T10:33:26;10.00;;;5.63;;
20855;SDS011;63058;49.424;8.420;2023-02-05T10:36:04;11.67;;;6.27;;
20855;SDS011;63058;49.424;8.420;2023-02-05T10:38:33;11.77;;;6.40;;
20855;SDS011;63058;49.424;8.420;2023-02-05T10:44:03;14.13;;;6.83;;
20855;SDS011;63058;49.424;8.420;2023-02-05T10:46:38;11.77;;;6.17;;
20855;SDS011;63058;49.424;8.420;2023-02-05T10:49:14;12.03;;;6.43;;
20855;SDS011;63058;49.424;8.420;2023-02-05T10:51:46;11.60;;;7.00;;
20855;SDS011;63058;49.424;8.420;2023-02-05T10:54:14;12.50;;;6.50;;
20855;SDS011;63058;49.424;8.420;2023-02-05T10:56:51;12.40;;;7.27;;
20855;SDS011;63058;49.424;8.420;2023-02-05T10:59:19;12.60;;;6.20;;
20855;SDS011;63058;49.424;8.420;2023-02-05T11:01:47;14.47;;;7.23;;
20855;SDS011;63058;49.424;8.420;2023-02-05T11:04:15;13.07;;;6.03;;
20855;SDS011;63058;49.424;8.420;2023-02-05T11:06:49;11.23;;;6.43;;
20855;SDS011;63058;49.424;8.420;2023-02-05T11:11:51;11.50;;;7.30;;
20855;SDS011;63058;49.424;8.420;2023-02-05T11:14:42;15.97;;;7.73;;
20855;SDS011;63058;49.424;8.420;2023-02-05T11:17:09;11.93;;;7.30;;
20855;SDS011;63058;49.424;8.420;2023-02-05T11:20:05;13.17;;;6.93;;
20855;SDS011;63058;49.424;8.420;2023-02-05T11:22:45;12.87;;;7.17;;
20855;SDS011;63058;49.424;8.420;2023-02-05T11:25:15;10.37;;;6.07;;
20855;SDS011;63058;49.424;8.420;2023-02-05T11:27:50;13.00;;;6.73;;
20855;SDS011;63058;49.424;8.420;2023-02-05T11:30:27;11.00;;;6.70;;
20855;SDS011;63058;49.424;8.420;2023-02-05T11:33:13;10.63;;;6.10;;
20855;SDS011;63058;49.424;8.420;2023-02-05T11:41:34;13.07;;;7.77;;
20855;SDS011;63058;49.424;8.420;2023-02-05T11:44:17;12.40;;;7.27;;
20855;SDS011;63058;49.424;8.420;2023-02-05T11:46:46;10.83;;;6.97;;
20855;SDS011;63058;49.424;8.420;2023-02-05T11:49:19;11.17;;;7.23;;
20855;SDS011;63058;49.424;8.420;2023-02-05T11:51:47;9.67;;;6.60;;
20855;SDS011;63058;49.424;8.420;2023-02-05T11:54:18;9.97;;;6.43;;
20855;SDS011;63058;49.424;8.420;2023-02-05T11:56:58;11.27;;;7.00;;
20855;SDS011;63058;49.424;8.420;2023-02-05T11:59:25;19.87;;;11.90;;
20855;SDS011;63058;49.424;8.420;2023-02-05T12:01:51;16.80;;;9.70;;
20855;SDS011;63058;49.424;8.420;2023-02-05T12:04:18;11.90;;;7.90;;
20855;SDS011;63058;49.424;8.420;2023-02-05T12:06:46;11.10;;;6.87;;
20855;SDS011;63058;49.424;8.420;2023-02-05T12:09:21;12.80;;;7.30;;
20855;SDS011;63058;49.424;8.420;2023-02-05T12:23:07;10.97;;;6.80;;
20855;SDS011;63058;49.424;8.420;2023-02-05T12:34:21;11.87;;;7.20;;
20855;SDS011;63058;49.424;8.420;2023-02-05T12:37:11;10.63;;;7.40;;
20855;SDS011;63058;49.424;8.420;2023-02-05T12:40:10;11.40;;;7.40;;
20855;SDS011;63058;49.424;8.420;2023-02-05T12:42:59;10.57;;;6.93;;
20855;SDS011;63058;49.424;8.420;2023-02-05T12:45:38;11.80;;;7.63;;
20855;SDS011;63058;49.424;8.420;2023-02-05T12:57:07;11.00;;;7.13;;
20855;SDS011;63058;49.424;8.420;2023-02-05T12:59:37;10.43;;;7.50;;
20855;SDS011;63058;49.424;8.420;2023-02-05T13:02:31;9.80;;;6.73;;
20855;SDS011;63058;49.424;8.420;2023-02-05T13:05:14;10.73;;;7.43;;
20855;SDS011;63058;49.424;8.420;2023-02-05T13:10:52;11.53;;;7.93;;
20855;SDS011;63058;49.424;8.420;2023-02-05T13:13:32;12.93;;;7.70;;
20855;SDS011;63058;49.424;8.420;2023-02-05T13:16:05;12.63;;;8.30;;
20855;SDS011;63058;49.424;8.420;2023-02-05T13:18:37;12.17;;;8.27;;
20855;SDS011;63058;49.424;8.420;2023-02-05T13:21:12;11.67;;;7.53;;
20855;SDS011;63058;49.424;8.420;2023-02-05T13:24:12;9.70;;;6.80;;
20855;SDS011;63058;49.424;8.420;2023-02-05T13:27:13;12.07;;;7.60;;
20855;SDS011;63058;49.424;8.420;2023-02-05T13:30:08;10.63;;;7.23;;
20855;SDS011;63058;49.424;8.420;2023-02-05T13:32:39;11.30;;;7.30;;
20855;SDS011;63058;49.424;8.420;2023-02-05T13:35:06;10.83;;;7.03;;
20855;SDS011;63058;49.424;8.420;2023-02-05T13:40:40;11.83;;;7.20;;
20855;SDS011;63058;49.424;8.420;2023-02-05T13:45:58;11.60;;;6.63;;
20855;SDS011;63058;49.424;8.420;2023-02-05T13:50:58;9.63;;;7.00;;
20855;SDS011;63058;49.424;8.420;2023-02-05T13:53:40;10.83;;;7.10;;
20855;SDS011;63058;49.424;8.420;2023-02-05T13:58:49;10.07;;;7.20;;
20855;SDS011;63058;49.424;8.420;2023-02-05T14:01:27;11.53;;;7.03;;
20855;SDS011;63058;49.424;8.420;2023-02-05T14:03:59;11.23;;;8.20;;
20855;SDS011;63058;49.424;8.420;2023-02-05T14:06:31;10.90;;;7.63;;
20855;SDS011;63058;49.424;8.420;2023-02-05T14:09:16;12.80;;;7.33;;
20855;SDS011;63058;49.424;8.420;2023-02-05T14:12:12;10.00;;;7.17;;
20855;SDS011;63058;49.424;8.420;2023-02-05T14:33:35;8.50;;;6.23;;
20855;SDS011;63058;49.424;8.420;2023-02-05T14:38:42;8.60;;;6.43;;
20855;SDS011;63058;49.424;8.420;2023-02-05T14:43:55;8.33;;;5.80;;
20855;SDS011;63058;49.424;8.420;2023-02-05T14:46:42;9.67;;;6.60;;
20855;SDS011;63058;49.424;8.420;2023-02-05T14:49:22;10.50;;;6.43;;
20855;SDS011;63058;49.424;8.420;2023-02-05T14:51:54;9.83;;;6.50;;
20855;SDS011;63058;49.424;8.420;2023-02-05T14:59:47;10.00;;;6.33;;
20855;SDS011;63058;49.424;8.420;2023-02-05T15:02:44;9.73;;;6.00;;
20855;SDS011;63058;49.424;8.420;2023-02-05T15:05:18;9.20;;;6.20;;
20855;SDS011;63058;49.424;8.420;2023-02-05T15:07:49;7.87;;;6.00;;
20855;SDS011;63058;49.424;8.420;2023-02-05T15:10:20;9.67;;;6.00;;
20855;SDS011;63058;49.424;8.420;2023-02-05T15:15:33;8.03;;;6.10;;
20855;SDS011;63058;49.424;8.420;2023-02-05T15:18:02;10.33;;;6.97;;
20855;SDS011;63058;49.424;8.420;2023-02-05T15:20:41;9.87;;;7.10;;
20855;SDS011;63058;49.424;8.420;2023-02-05T15:23:26;12.20;;;8.20;;
20855;SDS011;63058;49.424;8.420;2023-02-05T15:29:02;9.13;;;6.70;;
20855;SDS011;63058;49.424;8.420;2023-02-05T15:31:32;11.60;;;7.20;;
20855;SDS011;63058;49.424;8.420;2023-02-05T15:34:26;10.13;;;6.97;;
20855;SDS011;63058;49.424;8.420;2023-02-05T15:36:56;10.20;;;7.17;;
20855;SDS011;63058;49.424;8.420;2023-02-05T15:42:05;8.60;;;6.20;;
20855;SDS011;63058;49.424;8.420;2023-02-05T15:44:32;8.53;;;6.67;;
20855;SDS011;63058;49.424;8.420;2023-02-05T15:47:00;9.20;;;6.77;;
20855;SDS011;63058;49.424;8.420;2023-02-05T15:49:29;9.37;;;7.30;;
20855;SDS011;63058;49.424;8.420;2023-02-05T15:52:00;10.33;;;7.47;;
20855;SDS011;63058;49.424;8.420;2023-02-05T15:54:27;11.43;;;7.63;;
20855;SDS011;63058;49.424;8.420;2023-02-05T15:56:55;10.00;;;7.27;;
20855;SDS011;63058;49.424;8.420;2023-02-05T15:59:24;10.60;;;7.93;;
20855;SDS011;63058;49.424;8.420;2023-02-05T16:06:54;13.73;;;9.17;;
20855;SDS011;63058;49.424;8.420;2023-02-05T16:09:21;12.97;;;8.57;;
20855;SDS011;63058;49.424;8.420;2023-02-05T16:11:49;11.77;;;7.90;;
20855;SDS011;63058;49.424;8.420;2023-02-05T16:14:16;11.20;;;8.00;;
20855;SDS011;63058;49.424;8.420;2023-02-05T16:19:23;9.23;;;7.23;;
20855;SDS011;63058;49.424;8.420;2023-02-05T16:21:57;9.13;;;6.63;;
20855;SDS011;63058;49.424;8.420;2023-02-05T16:24:33;9.13;;;6.83;;
20855;SDS011;63058;49.424;8.420;2023-02-05T16:27:12;10.00;;;7.00;;
20855;SDS011;63058;49.424;8.420;2023-02-05T16:29:48;9.17;;;6.20;;
20855;SDS011;63058;49.424;8.420;2023-02-05T16:32:29;8.23;;;6.47;;
20855;SDS011;63058;49.424;8.420;2023-02-05T16:34:59;9.27;;;6.60;;
20855;SDS011;63058;49.424;8.420;2023-02-05T16:37:28;9.07;;;6.67;;
20855;SDS011;63058;49.424;8.420;2023-02-05T16:39:55;9.47;;;6.93;;
20855;SDS011;63058;49.424;8.420;2023-02-05T16:47:35;10.47;;;7.10;;
20855;SDS011;63058;49.424;8.420;2023-02-05T16:50:01;9.13;;;7.00;;
20855;SDS011;63058;49.424;8.420;2023-02-05T16:52:55;10.60;;;6.43;;
20855;SDS011;63058;49.424;8.420;2023-02-05T16:57:51;8.77;;;6.67;;
20855;SDS011;63058;49.424;8.420;2023-02-05T17:00:25;10.43;;;7.00;;
20855;SDS011;63058;49.424;8.420;2023-02-05T17:02:54;10.20;;;7.27;;
20855;SDS011;63058;49.424;8.420;2023-02-05T17:05:32;12.40;;;8.57;;
20855;SDS011;63058;49.424;8.420;2023-02-05T17:08:06;11.43;;;7.73;;
20855;SDS011;63058;49.424;8.420;2023-02-05T17:10:50;9.97;;;7.43;;
20855;SDS011;63058;49.424;8.420;2023-02-05T17:18:43;11.40;;;7.60;;
20855;SDS011;63058;49.424;8.420;2023-02-05T17:23:51;13.63;;;9.43;;
20855;SDS011;63058;49.424;8.420;2023-02-05T17:26:18;13.80;;;8.83;;
20855;SDS011;63058;49.424;8.420;2023-02-05T17:28:45;10.10;;;7.30;;
20855;SDS011;63058;49.424;8.420;2023-02-05T17:31:15;10.33;;;7.57;;
20855;SDS011;63058;49.424;8.420;2023-02-05T17:33:41;12.40;;;8.40;;
20855;SDS011;63058;49.424;8.420;2023-02-05T17:36:12;10.90;;;7.53;;
20855;SDS011;63058;49.424;8.420;2023-02-05T17:38:40;11.33;;;8.27;;
20855;SDS011;63058;49.424;8.420;2023-02-05T17:41:08;8.97;;;7.30;;
20855;SDS011;63058;49.424;8.420;2023-02-05T17:44:04;8.73;;;6.67;;
20855;SDS011;63058;49.424;8.420;2023-02-05T17:46:30;9.90;;;6.90;;
20855;SDS011;63058;49.424;8.420;2023-02-05T17:48:56;10.10;;;7.43;;